Maersk Douglas — DCPL2 — position and weather

sailwx.info

Track history (hours):
 
Tides and Currents Weather Stations Pressure Air Temp Water Temp Dewpoint Dewpoint Depression Visibility Wind Speed Wind Dir Waves Ship Positions

Maersk Douglas

Last reported at 2016-May-30 04:33 UTC. Time now 2016-May-30 04:56 UTC.
Position N 53°33' E 009°55'.

Length 294.1 m; beam 32.2 m; draft 13.7 m.

Type: Tug. MMSI: 211710650.

Date/timePositionNaut miles runAvg speedWind from/ knotsBaromVisibWave heightAir tempDewpointWater temp
2016-May-30 04:33N 53°33' E 009°55'0 0.0
2016-May-30 03:33N 53°33' E 009°55'0 0.0
2016-May-30 02:33N 53°33' E 009°55'0 0.0
2016-May-30 01:33N 53°33' E 009°55'0 0.0
2016-May-30 00:33N 53°33' E 009°55'0 0.0
2016-May-29 23:33N 53°33' E 009°55'0 0.0
2016-May-29 22:33N 53°33' E 009°55'3 3.1
2016-May-29 21:33N 53°30' E 009°58'0 0.2
2016-May-29 20:33N 53°30' E 009°58'3 2.9
2016-May-29 19:33N 53°33' E 009°55'0 0.0
2016-May-29 18:33N 53°33' E 009°55'0 0.0
2016-May-29 17:33N 53°33' E 009°55'0 0.0
2016-May-29 16:33N 53°33' E 009°55'0 0.0
2016-May-29 15:33N 53°33' E 009°55'0 0.0
2016-May-29 14:33N 53°33' E 009°55'0 0.0
2016-May-29 13:33N 53°33' E 009°55'0 0.0
2016-May-29 12:33N 53°33' E 009°55'0 0.0
2016-May-29 11:33N 53°33' E 009°55'0 0.0
2016-May-29 10:33N 53°33' E 009°55'0 0.0
2016-May-29 09:33N 53°33' E 009°55'0 0.0
2016-May-29 08:33N 53°33' E 009°55'0 0.0
2016-May-29 07:33N 53°33' E 009°55'2 1.7
2016-May-29 06:33N 53°31' E 009°56'2 2.4
2016-May-29 05:33N 53°29' E 009°59'4 4.1
2016-May-29 04:33N 53°33' E 009°55'0 0.0
2016-May-29 03:33N 53°33' E 009°55'0 0.0
2016-May-29 02:33N 53°33' E 009°55'0 0.0
2016-May-29 01:33N 53°33' E 009°55'1 1.0
2016-May-29 00:33N 53°32' E 009°56'2 2.1
2016-May-28 23:33N 53°33' E 009°52'1 1.3
2016-May-28 22:33N 53°33' E 009°50'3 3.0
2016-May-28 21:33N 53°33' E 009°55'0 0.0
2016-May-28 20:33N 53°33' E 009°55'0 0.0
2016-May-28 19:33N 53°33' E 009°55'0 0.0
2016-May-28 18:33N 53°33' E 009°55'0 0.0
2016-May-28 17:33N 53°33' E 009°55'0 0.0
2016-May-28 16:33N 53°33' E 009°55'0 0.0
2016-May-28 15:33N 53°33' E 009°55'0 0.0
2016-May-28 14:33N 53°33' E 009°55'0 0.0
2016-May-28 13:34N 53°33' E 009°55'0 0.0
2016-May-28 12:33N 53°33' E 009°55'0 0.0
2016-May-28 11:33N 53°33' E 009°55'0 0.0
2016-May-28 10:33N 53°33' E 009°55'1 0.8
2016-May-28 09:33N 53°32' E 009°55'1 1.3
2016-May-28 08:34N 53°32' E 009°53'8 7.7
2016-May-28 07:34N 53°34' E 009°40'8 8.3
2016-May-28 06:33N 53°33' E 009°54'1 0.6
2016-May-28 05:33N 53°33' E 009°55'0 0.0
2016-May-28 04:33N 53°33' E 009°55'0 0.1
2016-May-28 03:34N 53°33' E 009°55'4 3.5
2016-May-28 02:33N 53°30' E 009°59'3 3.2
2016-May-28 01:33N 53°33' E 009°56'0 0.4
2016-May-28 00:34N 53°32' E 009°56'0 0.3
2016-May-27 23:33N 53°33' E 009°55'0 0.0
2016-May-27 22:33N 53°33' E 009°55'0 0.0
2016-May-27 21:33N 53°33' E 009°55'0 0.0
2016-May-27 20:33N 53°33' E 009°55'0 0.0
2016-May-27 19:33N 53°33' E 009°55'0 0.4
2016-May-27 18:33N 53°33' E 009°56'1 0.6
2016-May-27 17:33N 53°33' E 009°57'1 0.7
2016-May-27 16:33N 53°32' E 009°58'2 1.5
2016-May-27 15:33N 53°33' E 009°55'0 0.0
2016-May-27 14:33N 53°33' E 009°55'0 0.0
2016-May-27 13:33N 53°33' E 009°55'0 0.0
2016-May-27 12:34N 53°33' E 009°55'0 0.0
2016-May-27 11:33N 53°33' E 009°55'0 0.0
2016-May-27 10:33N 53°33' E 009°55'1 1.3
2016-May-27 09:34N 53°33' E 009°53'1 1.2
2016-May-27 08:33N 53°32' E 009°55'1 0.6
2016-May-27 07:33N 53°32' E 009°54'1 0.5
2016-May-27 06:33N 53°33' E 009°55'0 0.0
2016-May-27 05:33N 53°33' E 009°55'0 0.0
2016-May-27 04:33N 53°33' E 009°55'0 0.0
2016-May-27 03:33N 53°33' E 009°55'0 0.0
2016-May-27 02:33N 53°33' E 009°55'0 0.0
2016-May-27 01:33N 53°33' E 009°55'0 0.0
2016-May-27 00:33N 53°33' E 009°55'0 0.0
2016-May-26 23:33N 53°33' E 009°55'0 0.0
2016-May-26 22:33N 53°33' E 009°55'0 0.0
2016-May-26 21:33N 53°33' E 009°55'0 0.0
2016-May-26 20:33N 53°33' E 009°55'5 5.5
2016-May-26 19:33N 53°34' E 009°46'10 9.6
2016-May-26 18:33N 53°38' E 009°32'3 2.6
2016-May-26 17:33N 53°40' E 009°30'1 1.1
2016-May-26 16:34N 53°39' E 009°31'7 6.6
2016-May-26 15:34N 53°34' E 009°38'7 7.5
2016-May-26 14:33N 53°33' E 009°51'3 2.7
2016-May-26 13:33N 53°33' E 009°55'0 0.0
2016-May-26 12:33N 53°33' E 009°55'2 1.5
2016-May-26 11:34N 53°32' E 009°58'0 0.0
2016-May-26 10:33N 53°32' E 009°58'2 1.8
2016-May-26 09:33N 53°30' E 009°56'1 0.6
2016-May-26 08:33N 53°31' E 009°56'2 1.9
2016-May-26 07:33N 53°33' E 009°55'0 0.0
2016-May-26 06:33N 53°33' E 009°55'0 0.0
2016-May-26 05:33N 53°33' E 009°55'0 0.0
2016-May-26 04:33N 53°33' E 009°55'0 0.0
2016-May-26 03:33N 53°33' E 009°55'0 0.0
2016-May-26 02:33N 53°33' E 009°55'0 0.0
2016-May-26 01:33N 53°33' E 009°55'0 0.0
2016-May-26 00:33N 53°33' E 009°55'0 0.0
2016-May-25 23:33N 53°33' E 009°55'0 0.0
2016-May-25 22:33N 53°33' E 009°55'0 0.0
2016-May-25 21:33N 53°33' E 009°55'0 0.0
2016-May-25 20:33N 53°33' E 009°55'0 0.0
2016-May-25 19:33N 53°33' E 009°55'0 0.0
2016-May-25 18:33N 53°33' E 009°55'0 0.0
2016-May-25 17:33N 53°33' E 009°55'0 0.0
2016-May-25 16:33N 53°33' E 009°55'0 0.0
2016-May-25 15:33N 53°33' E 009°55'0 0.0
2016-May-25 14:33N 53°33' E 009°55'0 0.0
2016-May-25 13:33N 53°33' E 009°55'0 0.0
2016-May-25 12:33N 53°33' E 009°55'0 0.0
2016-May-25 11:33N 53°33' E 009°55'0 0.0
2016-May-25 10:33N 53°33' E 009°55'0 0.0
2016-May-25 09:33N 53°33' E 009°55'0 0.0
2016-May-25 08:33N 53°33' E 009°55'0 0.0
2016-May-25 07:33N 53°33' E 009°55'0 0.0
2016-May-25 06:33N 53°33' E 009°55'2 1.7
2016-May-25 05:34N 53°31' E 009°56'3 2.7
2016-May-25 04:33N 53°33' E 009°52'1 1.3
2016-May-25 03:33N 53°33' E 009°50'3 2.9
2016-May-25 02:33N 53°33' E 009°55'0 0.0
2016-May-25 01:33N 53°33' E 009°55'0 0.0
2016-May-25 00:33N 53°33' E 009°55'0 0.0
2016-May-24 23:33N 53°33' E 009°55'0 0.0
2016-May-24 22:33N 53°33' E 009°55'2 2.2
2016-May-24 21:33N 53°31' E 009°56'1 0.6
2016-May-24 20:34N 53°30' E 009°57'5 4.7
2016-May-24 19:33N 53°33' E 009°50'3 2.9
2016-May-24 18:33N 53°33' E 009°55'0 0.0
2016-May-24 17:33N 53°33' E 009°55'0 0.0
2016-May-24 16:33N 53°33' E 009°55'0 0.0
2016-May-24 15:33N 53°33' E 009°55'0 0.0
2016-May-24 14:33N 53°33' E 009°55'0 0.0
2016-May-24 13:33N 53°33' E 009°55'0 0.0
2016-May-24 12:33N 53°33' E 009°55'0 0.0
2016-May-24 11:34N 53°33' E 009°55'0 0.0
2016-May-24 10:33N 53°33' E 009°55'0 0.0
2016-May-24 09:33N 53°33' E 009°55'0 0.0
2016-May-24 08:33N 53°33' E 009°55'0 0.0
2016-May-24 07:33N 53°33' E 009°55'0 0.0
2016-May-24 06:33N 53°33' E 009°55'0 0.0
2016-May-24 05:33N 53°33' E 009°55'0 0.0
2016-May-24 04:33N 53°33' E 009°55'0 0.5
2016-May-24 03:33N 53°32' E 009°55'0 0.5
2016-May-24 02:33N 53°33' E 009°55'0 0.0
2016-May-24 01:33N 53°33' E 009°55'0 0.0
2016-May-24 00:33N 53°33' E 009°55'0 0.0
2016-May-23 23:33N 53°33' E 009°55'0 0.0
2016-May-23 22:33N 53°33' E 009°55'0 0.0
2016-May-23 21:33N 53°33' E 009°55'0 0.0
2016-May-23 20:33N 53°33' E 009°55'0 0.5
2016-May-23 19:33N 53°32' E 009°55'1 0.8
2016-May-23 18:34N 53°32' E 009°55'1 0.8
2016-May-23 17:34N 53°33' E 009°55'0 0.1
2016-May-23 16:33N 53°33' E 009°55'0 0.0
2016-May-23 15:33N 53°33' E 009°55'0 0.0
2016-May-23 14:33N 53°33' E 009°55'2 1.6
2016-May-23 13:34N 53°31' E 009°53'2 1.6
2016-May-23 12:33N 53°33' E 009°55'0 0.0
2016-May-23 11:33N 53°33' E 009°55'0 0.0
2016-May-23 10:33N 53°33' E 009°55'0 0.0
2016-May-23 09:33N 53°33' E 009°55'0 0.0
2016-May-23 08:33N 53°33' E 009°55'0 0.0
2016-May-23 07:34N 53°33' E 009°55'0 0.0
2016-May-23 06:33N 53°33' E 009°55'0 0.0
2016-May-23 05:33N 53°33' E 009°55'0 0.0
2016-May-23 04:33N 53°33' E 009°55'0 0.0
2016-May-23 03:33N 53°33' E 009°55'0 0.0
2016-May-23 02:34N 53°33' E 009°55'0 0.0
2016-May-23 01:33N 53°33' E 009°55'0 0.0
2016-May-23 00:33N 53°33' E 009°55'0 0.0
2016-May-22 23:33N 53°33' E 009°55'0 0.0
2016-May-22 22:33N 53°33' E 009°55'0 0.0
2016-May-22 21:33N 53°33' E 009°55'0 0.0
2016-May-22 20:33N 53°33' E 009°55'0 0.0
2016-May-22 19:33N 53°33' E 009°55'0 0.0
2016-May-22 18:33N 53°33' E 009°55'0 0.0
2016-May-22 17:33N 53°33' E 009°55'0 0.0
2016-May-22 16:33N 53°33' E 009°55'0 0.0
2016-May-22 15:33N 53°33' E 009°55'0 0.0
2016-May-22 14:33N 53°33' E 009°55'0 0.0
2016-May-22 13:33N 53°33' E 009°55'0 0.0
2016-May-22 12:33N 53°33' E 009°55'0 0.0
2016-May-22 11:33N 53°33' E 009°55'0 0.0
2016-May-22 10:33N 53°33' E 009°55'0 0.0
2016-May-22 09:33N 53°33' E 009°55'0 0.0
2016-May-22 08:33N 53°33' E 009°55'0 0.0
2016-May-22 07:33N 53°33' E 009°55'0 0.0
2016-May-22 06:33N 53°33' E 009°55'0 0.0
2016-May-22 05:33N 53°33' E 009°55'1 0.6
2016-May-22 04:34N 53°32' E 009°54'2 2.5
2016-May-22 03:33N 53°33' E 009°50'3 2.9
2016-May-22 02:33N 53°33' E 009°55'0 0.0
2016-May-22 01:33N 53°33' E 009°55'0 0.0
2016-May-22 00:33N 53°33' E 009°55'0 0.0
2016-May-21 23:33N 53°33' E 009°55'0 0.0
2016-May-21 22:33N 53°33' E 009°55'0 0.0
2016-May-21 21:33N 53°33' E 009°55'0 0.0
2016-May-21 20:33N 53°33' E 009°55'0 0.0
2016-May-21 19:33N 53°33' E 009°55'0 0.0
2016-May-21 18:33N 53°33' E 009°55'0 0.0
2016-May-21 17:33N 53°33' E 009°55'0 0.0
2016-May-21 16:33N 53°33' E 009°55'0 0.0
2016-May-21 15:33N 53°33' E 009°55'0 0.0
2016-May-21 14:33N 53°33' E 009°55'0 0.0
2016-May-21 13:33N 53°33' E 009°55'0 0.0
2016-May-21 12:33N 53°33' E 009°55'0 0.0
2016-May-21 11:33N 53°33' E 009°55'0 0.0
2016-May-21 10:33N 53°33' E 009°55'0 0.0
2016-May-21 09:34N 53°33' E 009°55'0 0.0
2016-May-21 08:33N 53°33' E 009°55'0 0.0
2016-May-21 07:33N 53°33' E 009°55'0 0.0
2016-May-21 06:33N 53°33' E 009°55'0 0.0
2016-May-21 05:33N 53°33' E 009°55'0 0.0
2016-May-21 04:33N 53°33' E 009°55'0 0.0
2016-May-21 03:33N 53°33' E 009°55'0 0.0
2016-May-21 02:33N 53°33' E 009°55'0 0.0
2016-May-21 01:33N 53°33' E 009°55'0 0.0
2016-May-21 00:33N 53°33' E 009°55'0 0.0
2016-May-20 23:33N 53°33' E 009°55'0 0.0
2016-May-20 22:33N 53°33' E 009°55'0 0.0
2016-May-20 21:33N 53°33' E 009°55'3 2.9
2016-May-20 20:33N 53°30' E 009°58'0 0.4
2016-May-20 19:34N 53°30' E 009°59'3 3.3
2016-May-20 18:33N 53°33' E 009°55'0 0.0
2016-May-20 17:34N 53°33' E 009°55'0 0.0
2016-May-20 16:33N 53°33' E 009°55'0 0.0
2016-May-20 15:33N 53°33' E 009°55'0 0.0
2016-May-20 14:33N 53°33' E 009°55'0 0.0
2016-May-20 13:33N 53°33' E 009°55'0 0.0
2016-May-20 12:33N 53°33' E 009°55'1 0.9
2016-May-20 11:33N 53°32' E 009°55'1 0.9
2016-May-20 10:33N 53°33' E 009°55'0 0.0
2016-May-20 09:33N 53°33' E 009°55'0 0.0
2016-May-20 08:33N 53°33' E 009°55'0 0.0
2016-May-20 07:33N 53°33' E 009°55'0 0.0
2016-May-20 06:34N 53°33' E 009°55'0 0.0
2016-May-20 05:33N 53°33' E 009°55'  
Track history (hours):
 
Tides and Currents Weather Stations Pressure Air Temp Water Temp Dewpoint Dewpoint Depression Visibility Wind Speed Wind Dir Waves Ship Positions

Maersk Douglas

Last reported at 2016-May-30 04:33 UTC. Time now 2016-May-30 04:56 UTC.
Position N 53°33' E 009°55'.

Length 294.1 m; beam 32.2 m; draft 13.7 m.

Type: Tug. MMSI: 211710650.

Date/timePositionNaut miles runAvg speedWind from/ knotsBaromVisibWave heightAir tempDewpointWater temp
2016-May-30 04:33N 53°33' E 009°55'0 0.0
2016-May-30 03:33N 53°33' E 009°55'0 0.0
2016-May-30 02:33N 53°33' E 009°55'0 0.0
2016-May-30 01:33N 53°33' E 009°55'0 0.0
2016-May-30 00:33N 53°33' E 009°55'0 0.0
2016-May-29 23:33N 53°33' E 009°55'0 0.0
2016-May-29 22:33N 53°33' E 009°55'3 3.1
2016-May-29 21:33N 53°30' E 009°58'0 0.2
2016-May-29 20:33N 53°30' E 009°58'3 2.9
2016-May-29 19:33N 53°33' E 009°55'0 0.0
2016-May-29 18:33N 53°33' E 009°55'0 0.0
2016-May-29 17:33N 53°33' E 009°55'0 0.0
2016-May-29 16:33N 53°33' E 009°55'0 0.0
2016-May-29 15:33N 53°33' E 009°55'0 0.0
2016-May-29 14:33N 53°33' E 009°55'0 0.0
2016-May-29 13:33N 53°33' E 009°55'0 0.0
2016-May-29 12:33N 53°33' E 009°55'0 0.0
2016-May-29 11:33N 53°33' E 009°55'0 0.0
2016-May-29 10:33N 53°33' E 009°55'0 0.0
2016-May-29 09:33N 53°33' E 009°55'0 0.0
2016-May-29 08:33N 53°33' E 009°55'0 0.0
2016-May-29 07:33N 53°33' E 009°55'2 1.7
2016-May-29 06:33N 53°31' E 009°56'2 2.4
2016-May-29 05:33N 53°29' E 009°59'4 4.1
2016-May-29 04:33N 53°33' E 009°55'0 0.0
2016-May-29 03:33N 53°33' E 009°55'0 0.0
2016-May-29 02:33N 53°33' E 009°55'0 0.0
2016-May-29 01:33N 53°33' E 009°55'1 1.0
2016-May-29 00:33N 53°32' E 009°56'2 2.1
2016-May-28 23:33N 53°33' E 009°52'1 1.3
2016-May-28 22:33N 53°33' E 009°50'3 3.0
2016-May-28 21:33N 53°33' E 009°55'0 0.0
2016-May-28 20:33N 53°33' E 009°55'0 0.0
2016-May-28 19:33N 53°33' E 009°55'0 0.0
2016-May-28 18:33N 53°33' E 009°55'0 0.0
2016-May-28 17:33N 53°33' E 009°55'0 0.0
2016-May-28 16:33N 53°33' E 009°55'0 0.0
2016-May-28 15:33N 53°33' E 009°55'0 0.0
2016-May-28 14:33N 53°33' E 009°55'0 0.0
2016-May-28 13:34N 53°33' E 009°55'0 0.0
2016-May-28 12:33N 53°33' E 009°55'0 0.0
2016-May-28 11:33N 53°33' E 009°55'0 0.0
2016-May-28 10:33N 53°33' E 009°55'1 0.8
2016-May-28 09:33N 53°32' E 009°55'1 1.3
2016-May-28 08:34N 53°32' E 009°53'8 7.7
2016-May-28 07:34N 53°34' E 009°40'8 8.3
2016-May-28 06:33N 53°33' E 009°54'1 0.6
2016-May-28 05:33N 53°33' E 009°55'0 0.0
2016-May-28 04:33N 53°33' E 009°55'0 0.1
2016-May-28 03:34N 53°33' E 009°55'4 3.5
2016-May-28 02:33N 53°30' E 009°59'3 3.2
2016-May-28 01:33N 53°33' E 009°56'0 0.4
2016-May-28 00:34N 53°32' E 009°56'0 0.3
2016-May-27 23:33N 53°33' E 009°55'0 0.0
2016-May-27 22:33N 53°33' E 009°55'0 0.0
2016-May-27 21:33N 53°33' E 009°55'0 0.0
2016-May-27 20:33N 53°33' E 009°55'0 0.0
2016-May-27 19:33N 53°33' E 009°55'0 0.4
2016-May-27 18:33N 53°33' E 009°56'1 0.6
2016-May-27 17:33N 53°33' E 009°57'1 0.7
2016-May-27 16:33N 53°32' E 009°58'2 1.5
2016-May-27 15:33N 53°33' E 009°55'0 0.0
2016-May-27 14:33N 53°33' E 009°55'0 0.0
2016-May-27 13:33N 53°33' E 009°55'0 0.0
2016-May-27 12:34N 53°33' E 009°55'0 0.0
2016-May-27 11:33N 53°33' E 009°55'0 0.0
2016-May-27 10:33N 53°33' E 009°55'1 1.3
2016-May-27 09:34N 53°33' E 009°53'1 1.2
2016-May-27 08:33N 53°32' E 009°55'1 0.6
2016-May-27 07:33N 53°32' E 009°54'1 0.5
2016-May-27 06:33N 53°33' E 009°55'0 0.0
2016-May-27 05:33N 53°33' E 009°55'0 0.0
2016-May-27 04:33N 53°33' E 009°55'0 0.0
2016-May-27 03:33N 53°33' E 009°55'0 0.0
2016-May-27 02:33N 53°33' E 009°55'0 0.0
2016-May-27 01:33N 53°33' E 009°55'0 0.0
2016-May-27 00:33N 53°33' E 009°55'0 0.0
2016-May-26 23:33N 53°33' E 009°55'0 0.0
2016-May-26 22:33N 53°33' E 009°55'0 0.0
2016-May-26 21:33N 53°33' E 009°55'0 0.0
2016-May-26 20:33N 53°33' E 009°55'5 5.5
2016-May-26 19:33N 53°34' E 009°46'10 9.6
2016-May-26 18:33N 53°38' E 009°32'3 2.6
2016-May-26 17:33N 53°40' E 009°30'1 1.1
2016-May-26 16:34N 53°39' E 009°31'7 6.6
2016-May-26 15:34N 53°34' E 009°38'7 7.5
2016-May-26 14:33N 53°33' E 009°51'3 2.7
2016-May-26 13:33N 53°33' E 009°55'0 0.0
2016-May-26 12:33N 53°33' E 009°55'2 1.5
2016-May-26 11:34N 53°32' E 009°58'0 0.0
2016-May-26 10:33N 53°32' E 009°58'2 1.8
2016-May-26 09:33N 53°30' E 009°56'1 0.6
2016-May-26 08:33N 53°31' E 009°56'2 1.9
2016-May-26 07:33N 53°33' E 009°55'0 0.0
2016-May-26 06:33N 53°33' E 009°55'0 0.0
2016-May-26 05:33N 53°33' E 009°55'0 0.0
2016-May-26 04:33N 53°33' E 009°55'0 0.0
2016-May-26 03:33N 53°33' E 009°55'0 0.0
2016-May-26 02:33N 53°33' E 009°55'0 0.0
2016-May-26 01:33N 53°33' E 009°55'0 0.0
2016-May-26 00:33N 53°33' E 009°55'0 0.0
2016-May-25 23:33N 53°33' E 009°55'0 0.0
2016-May-25 22:33N 53°33' E 009°55'0 0.0
2016-May-25 21:33N 53°33' E 009°55'0 0.0
2016-May-25 20:33N 53°33' E 009°55'0 0.0
2016-May-25 19:33N 53°33' E 009°55'0 0.0
2016-May-25 18:33N 53°33' E 009°55'0 0.0
2016-May-25 17:33N 53°33' E 009°55'0 0.0
2016-May-25 16:33N 53°33' E 009°55'0 0.0
2016-May-25 15:33N 53°33' E 009°55'0 0.0
2016-May-25 14:33N 53°33' E 009°55'0 0.0
2016-May-25 13:33N 53°33' E 009°55'0 0.0
2016-May-25 12:33N 53°33' E 009°55'0 0.0
2016-May-25 11:33N 53°33' E 009°55'0 0.0
2016-May-25 10:33N 53°33' E 009°55'0 0.0
2016-May-25 09:33N 53°33' E 009°55'0 0.0
2016-May-25 08:33N 53°33' E 009°55'0 0.0
2016-May-25 07:33N 53°33' E 009°55'0 0.0
2016-May-25 06:33N 53°33' E 009°55'2 1.7
2016-May-25 05:34N 53°31' E 009°56'3 2.7
2016-May-25 04:33N 53°33' E 009°52'1 1.3
2016-May-25 03:33N 53°33' E 009°50'3 2.9
2016-May-25 02:33N 53°33' E 009°55'0 0.0
2016-May-25 01:33N 53°33' E 009°55'0 0.0
2016-May-25 00:33N 53°33' E 009°55'0 0.0
2016-May-24 23:33N 53°33' E 009°55'0 0.0
2016-May-24 22:33N 53°33' E 009°55'2 2.2
2016-May-24 21:33N 53°31' E 009°56'1 0.6
2016-May-24 20:34N 53°30' E 009°57'5 4.7
2016-May-24 19:33N 53°33' E 009°50'3 2.9
2016-May-24 18:33N 53°33' E 009°55'0 0.0
2016-May-24 17:33N 53°33' E 009°55'0 0.0
2016-May-24 16:33N 53°33' E 009°55'0 0.0
2016-May-24 15:33N 53°33' E 009°55'0 0.0
2016-May-24 14:33N 53°33' E 009°55'0 0.0
2016-May-24 13:33N 53°33' E 009°55'0 0.0
2016-May-24 12:33N 53°33' E 009°55'0 0.0
2016-May-24 11:34N 53°33' E 009°55'0 0.0
2016-May-24 10:33N 53°33' E 009°55'0 0.0
2016-May-24 09:33N 53°33' E 009°55'0 0.0
2016-May-24 08:33N 53°33' E 009°55'0 0.0
2016-May-24 07:33N 53°33' E 009°55'0 0.0
2016-May-24 06:33N 53°33' E 009°55'0 0.0
2016-May-24 05:33N 53°33' E 009°55'0 0.0
2016-May-24 04:33N 53°33' E 009°55'0 0.5
2016-May-24 03:33N 53°32' E 009°55'0 0.5
2016-May-24 02:33N 53°33' E 009°55'0 0.0
2016-May-24 01:33N 53°33' E 009°55'0 0.0
2016-May-24 00:33N 53°33' E 009°55'0 0.0
2016-May-23 23:33N 53°33' E 009°55'0 0.0
2016-May-23 22:33N 53°33' E 009°55'0 0.0
2016-May-23 21:33N 53°33' E 009°55'0 0.0
2016-May-23 20:33N 53°33' E 009°55'0 0.5
2016-May-23 19:33N 53°32' E 009°55'1 0.8
2016-May-23 18:34N 53°32' E 009°55'1 0.8
2016-May-23 17:34N 53°33' E 009°55'0 0.1
2016-May-23 16:33N 53°33' E 009°55'0 0.0
2016-May-23 15:33N 53°33' E 009°55'0 0.0
2016-May-23 14:33N 53°33' E 009°55'2 1.6
2016-May-23 13:34N 53°31' E 009°53'2 1.6
2016-May-23 12:33N 53°33' E 009°55'0 0.0
2016-May-23 11:33N 53°33' E 009°55'0 0.0
2016-May-23 10:33N 53°33' E 009°55'0 0.0
2016-May-23 09:33N 53°33' E 009°55'0 0.0
2016-May-23 08:33N 53°33' E 009°55'0 0.0
2016-May-23 07:34N 53°33' E 009°55'0 0.0
2016-May-23 06:33N 53°33' E 009°55'0 0.0
2016-May-23 05:33N 53°33' E 009°55'0 0.0
2016-May-23 04:33N 53°33' E 009°55'0 0.0
2016-May-23 03:33N 53°33' E 009°55'0 0.0
2016-May-23 02:34N 53°33' E 009°55'0 0.0
2016-May-23 01:33N 53°33' E 009°55'0 0.0
2016-May-23 00:33N 53°33' E 009°55'0 0.0
2016-May-22 23:33N 53°33' E 009°55'0 0.0
2016-May-22 22:33N 53°33' E 009°55'0 0.0
2016-May-22 21:33N 53°33' E 009°55'0 0.0
2016-May-22 20:33N 53°33' E 009°55'0 0.0
2016-May-22 19:33N 53°33' E 009°55'0 0.0
2016-May-22 18:33N 53°33' E 009°55'0 0.0
2016-May-22 17:33N 53°33' E 009°55'0 0.0
2016-May-22 16:33N 53°33' E 009°55'0 0.0
2016-May-22 15:33N 53°33' E 009°55'0 0.0
2016-May-22 14:33N 53°33' E 009°55'0 0.0
2016-May-22 13:33N 53°33' E 009°55'0 0.0
2016-May-22 12:33N 53°33' E 009°55'0 0.0
2016-May-22 11:33N 53°33' E 009°55'0 0.0
2016-May-22 10:33N 53°33' E 009°55'0 0.0
2016-May-22 09:33N 53°33' E 009°55'0 0.0
2016-May-22 08:33N 53°33' E 009°55'0 0.0
2016-May-22 07:33N 53°33' E 009°55'0 0.0
2016-May-22 06:33N 53°33' E 009°55'0 0.0
2016-May-22 05:33N 53°33' E 009°55'1 0.6
2016-May-22 04:34N 53°32' E 009°54'2 2.5
2016-May-22 03:33N 53°33' E 009°50'3 2.9
2016-May-22 02:33N 53°33' E 009°55'0 0.0
2016-May-22 01:33N 53°33' E 009°55'0 0.0
2016-May-22 00:33N 53°33' E 009°55'0 0.0
2016-May-21 23:33N 53°33' E 009°55'0 0.0
2016-May-21 22:33N 53°33' E 009°55'0 0.0
2016-May-21 21:33N 53°33' E 009°55'0 0.0
2016-May-21 20:33N 53°33' E 009°55'0 0.0
2016-May-21 19:33N 53°33' E 009°55'0 0.0
2016-May-21 18:33N 53°33' E 009°55'0 0.0
2016-May-21 17:33N 53°33' E 009°55'0 0.0
2016-May-21 16:33N 53°33' E 009°55'0 0.0
2016-May-21 15:33N 53°33' E 009°55'0 0.0
2016-May-21 14:33N 53°33' E 009°55'0 0.0
2016-May-21 13:33N 53°33' E 009°55'0 0.0
2016-May-21 12:33N 53°33' E 009°55'0 0.0
2016-May-21 11:33N 53°33' E 009°55'0 0.0
2016-May-21 10:33N 53°33' E 009°55'0 0.0
2016-May-21 09:34N 53°33' E 009°55'0 0.0
2016-May-21 08:33N 53°33' E 009°55'0 0.0
2016-May-21 07:33N 53°33' E 009°55'0 0.0
2016-May-21 06:33N 53°33' E 009°55'0 0.0
2016-May-21 05:33N 53°33' E 009°55'0 0.0
2016-May-21 04:33N 53°33' E 009°55'0 0.0
2016-May-21 03:33N 53°33' E 009°55'0 0.0
2016-May-21 02:33N 53°33' E 009°55'0 0.0
2016-May-21 01:33N 53°33' E 009°55'0 0.0
2016-May-21 00:33N 53°33' E 009°55'0 0.0
2016-May-20 23:33N 53°33' E 009°55'0 0.0
2016-May-20 22:33N 53°33' E 009°55'0 0.0
2016-May-20 21:33N 53°33' E 009°55'3 2.9
2016-May-20 20:33N 53°30' E 009°58'0 0.4
2016-May-20 19:34N 53°30' E 009°59'3 3.3
2016-May-20 18:33N 53°33' E 009°55'0 0.0
2016-May-20 17:34N 53°33' E 009°55'0 0.0
2016-May-20 16:33N 53°33' E 009°55'0 0.0
2016-May-20 15:33N 53°33' E 009°55'0 0.0
2016-May-20 14:33N 53°33' E 009°55'0 0.0
2016-May-20 13:33N 53°33' E 009°55'0 0.0
2016-May-20 12:33N 53°33' E 009°55'1 0.9
2016-May-20 11:33N 53°32' E 009°55'1 0.9
2016-May-20 10:33N 53°33' E 009°55'0 0.0
2016-May-20 09:33N 53°33' E 009°55'0 0.0
2016-May-20 08:33N 53°33' E 009°55'0 0.0
2016-May-20 07:33N 53°33' E 009°55'0 0.0
2016-May-20 06:34N 53°33' E 009°55'0 0.0
2016-May-20 05:33N 53°33' E 009°55'  

Dump ship's entire track history